createdAt,value
2018-03-31T00:01:05.604Z,1.40
2018-03-31T00:03:33.196Z,2.57
2018-03-31T00:06:00.770Z,1.70
2018-03-31T00:08:28.346Z,2.57
2018-03-31T00:10:55.910Z,1.50
2018-03-31T00:13:23.468Z,1.50
2018-03-31T00:15:51.023Z,1.50
2018-03-31T00:18:18.592Z,1.10
2018-03-31T00:20:46.169Z,1.20
2018-03-31T00:23:13.738Z,1.10
2018-03-31T00:25:42.062Z,1.30
2018-03-31T00:28:09.620Z,1.50
2018-03-31T00:30:37.194Z,2.03
2018-03-31T00:33:04.822Z,2.00
2018-03-31T00:35:32.348Z,2.20
2018-03-31T00:37:59.936Z,1.70
2018-03-31T00:40:27.489Z,1.57
2018-03-31T00:42:55.104Z,1.27
2018-03-31T00:45:23.437Z,1.20
2018-03-31T00:47:51.318Z,1.10
2018-03-31T00:50:18.880Z,1.03
2018-03-31T00:52:46.445Z,1.23
2018-03-31T00:55:14.015Z,1.00
2018-03-31T00:57:41.584Z,1.10
2018-03-31T01:00:09.236Z,1.50
2018-03-31T01:02:36.744Z,1.63
2018-03-31T01:05:04.308Z,1.40
2018-03-31T01:07:31.869Z,1.00
2018-03-31T01:09:59.452Z,1.07
2018-03-31T01:12:27.048Z,1.23
2018-03-31T01:14:54.621Z,1.40
2018-03-31T01:17:22.276Z,1.30
2018-03-31T01:19:49.882Z,1.80
2018-03-31T01:22:17.441Z,1.30
2018-03-31T01:24:45.003Z,1.40
2018-03-31T01:27:12.571Z,1.13
2018-03-31T01:29:40.162Z,1.30
2018-03-31T01:32:07.971Z,1.70
2018-03-31T01:34:35.538Z,1.33
2018-03-31T01:37:03.088Z,1.50
2018-03-31T01:39:30.664Z,2.10
2018-03-31T01:41:58.216Z,2.23
2018-03-31T01:44:25.791Z,1.73
2018-03-31T01:47:00.408Z,1.50
2018-03-31T01:49:28.449Z,1.30
2018-03-31T01:51:56.022Z,1.40
2018-03-31T01:54:23.977Z,1.10
2018-03-31T01:56:52.546Z,1.60
2018-03-31T02:02:11.366Z,1.03
2018-03-31T02:04:38.985Z,1.13
2018-03-31T02:07:06.534Z,1.10
2018-03-31T02:09:35.804Z,1.50
2018-03-31T02:12:03.355Z,1.60
2018-03-31T02:17:40.300Z,1.83
2018-03-31T02:20:08.001Z,1.80
2018-03-31T02:22:35.684Z,2.10
2018-03-31T02:25:03.549Z,2.10
2018-03-31T02:27:31.087Z,3.77
2018-03-31T02:29:58.706Z,2.60
2018-03-31T02:35:07.904Z,2.17
2018-03-31T02:37:37.101Z,1.40
2018-03-31T02:40:06.364Z,1.47
2018-03-31T02:42:34.015Z,1.93
2018-03-31T02:45:02.473Z,1.63
2018-03-31T02:47:30.049Z,1.80
2018-03-31T02:49:57.603Z,1.60
2018-03-31T02:52:25.174Z,1.20
2018-03-31T02:54:52.723Z,1.20
2018-03-31T02:57:20.287Z,1.23
2018-03-31T02:59:47.939Z,1.50
2018-03-31T03:02:15.579Z,1.40
2018-03-31T03:04:43.469Z,4.00
2018-03-31T03:07:11.905Z,2.00
2018-03-31T03:09:39.481Z,1.70
2018-03-31T03:12:07.936Z,1.40
2018-03-31T03:14:35.531Z,1.53
2018-03-31T03:17:03.107Z,1.50
2018-03-31T03:19:30.660Z,1.27
2018-03-31T03:21:59.700Z,1.40
2018-03-31T03:24:27.262Z,1.30
2018-03-31T03:26:54.930Z,1.57
2018-03-31T03:29:22.500Z,1.30
2018-03-31T03:31:50.184Z,1.30
2018-03-31T03:34:17.740Z,1.40
2018-03-31T03:36:45.333Z,1.50
2018-03-31T03:39:13.281Z,1.70
2018-03-31T03:41:40.868Z,1.37
2018-03-31T03:44:08.513Z,1.60
2018-03-31T03:46:36.900Z,2.10
2018-03-31T03:49:05.240Z,1.50
2018-03-31T03:51:33.067Z,2.20
2018-03-31T03:54:00.895Z,1.90
2018-03-31T03:56:28.819Z,1.40
2018-03-31T03:58:56.369Z,1.60
2018-03-31T04:01:24.459Z,1.50
2018-03-31T04:03:53.146Z,1.60
2018-03-31T04:06:21.520Z,1.30
2018-03-31T04:08:49.093Z,1.50
2018-03-31T04:11:16.715Z,1.40
2018-03-31T04:13:44.358Z,1.47
2018-03-31T04:16:12.657Z,1.80
2018-03-31T04:18:40.379Z,1.77
2018-03-31T04:21:07.955Z,2.70
2018-03-31T04:23:36.739Z,4.60
2018-03-31T04:26:05.066Z,6.50
2018-03-31T04:28:32.632Z,4.77
2018-03-31T04:31:00.197Z,5.30
2018-03-31T04:33:27.816Z,3.57
2018-03-31T04:35:55.371Z,3.60
2018-03-31T04:38:22.933Z,5.57
2018-03-31T04:40:50.511Z,4.03
2018-03-31T04:43:18.074Z,3.87
2018-03-31T04:45:47.769Z,3.50
2018-03-31T04:48:15.393Z,2.60
2018-03-31T04:50:43.868Z,2.50
2018-03-31T04:53:11.436Z,2.20
2018-03-31T04:55:39.059Z,2.07
2018-03-31T04:58:06.733Z,2.40
2018-03-31T05:00:34.322Z,1.90
2018-03-31T05:03:01.907Z,1.80
2018-03-31T05:05:29.480Z,2.00
2018-03-31T05:07:57.052Z,2.70
2018-03-31T05:10:24.625Z,2.90
2018-03-31T05:12:52.274Z,2.37
2018-03-31T05:15:19.828Z,2.83
2018-03-31T05:17:48.185Z,2.57
2018-03-31T05:20:15.760Z,3.70
2018-03-31T05:22:43.351Z,3.63
2018-03-31T05:25:10.984Z,4.03
2018-03-31T05:27:38.798Z,3.83
2018-03-31T05:30:06.316Z,4.30
2018-03-31T05:32:33.920Z,4.43
2018-03-31T05:35:01.502Z,4.67
2018-03-31T05:37:29.064Z,5.63
2018-03-31T05:39:56.716Z,5.60
2018-03-31T05:42:24.335Z,5.93
2018-03-31T05:44:51.957Z,6.10
2018-03-31T05:47:19.542Z,6.87
2018-03-31T05:49:47.138Z,7.53
2018-03-31T05:52:14.697Z,5.17
2018-03-31T05:54:42.272Z,6.33
2018-03-31T05:57:09.842Z,5.80
2018-03-31T05:59:37.411Z,5.80
2018-03-31T06:02:05.018Z,5.20
2018-03-31T06:04:32.607Z,5.43
2018-03-31T06:07:00.253Z,5.23
2018-03-31T06:09:27.821Z,5.07
2018-03-31T06:11:55.398Z,5.17
2018-03-31T06:14:22.951Z,4.60
2018-03-31T06:16:50.524Z,4.40
2018-03-31T06:19:18.077Z,5.00
2018-03-31T06:21:45.645Z,4.60
2018-03-31T06:24:14.116Z,5.00
2018-03-31T06:26:41.807Z,4.13
2018-03-31T06:29:09.363Z,4.20
2018-03-31T06:31:36.949Z,3.90
2018-03-31T06:34:04.503Z,3.77
2018-03-31T06:36:32.094Z,3.50
2018-03-31T06:38:59.676Z,4.20
2018-03-31T06:41:27.255Z,4.00
2018-03-31T06:43:54.893Z,4.03
2018-03-31T06:46:23.179Z,3.90
2018-03-31T06:48:50.888Z,4.10
2018-03-31T06:51:18.437Z,3.50
2018-03-31T06:53:46.001Z,3.53
2018-03-31T06:56:13.555Z,3.57
2018-03-31T06:58:41.134Z,3.50
2018-03-31T07:01:08.709Z,3.70
2018-03-31T07:03:42.856Z,3.30
2018-03-31T07:06:10.433Z,3.50
2018-03-31T07:08:38.013Z,3.63
2018-03-31T07:11:05.592Z,4.77
2018-03-31T07:13:33.579Z,3.50
2018-03-31T07:16:01.129Z,3.40
2018-03-31T07:18:28.698Z,2.87
2018-03-31T07:20:57.065Z,3.00
2018-03-31T07:23:25.396Z,2.50
2018-03-31T07:25:53.258Z,2.60
2018-03-31T07:28:20.944Z,2.27
2018-03-31T07:30:48.491Z,2.50
2018-03-31T07:33:16.833Z,3.00
2018-03-31T07:35:44.410Z,2.10
2018-03-31T07:38:12.020Z,2.43
2018-03-31T07:40:40.333Z,2.10
2018-03-31T07:43:07.901Z,1.90
2018-03-31T07:45:35.473Z,1.90
2018-03-31T07:48:03.063Z,1.97
2018-03-31T07:50:30.636Z,1.97
2018-03-31T07:53:02.462Z,2.00
2018-03-31T07:55:30.128Z,2.10
2018-03-31T07:57:57.705Z,2.40
2018-03-31T08:00:26.364Z,1.87
2018-03-31T08:02:53.925Z,2.17
2018-03-31T08:05:21.493Z,1.70
2018-03-31T08:07:49.057Z,1.77
2018-03-31T08:10:19.836Z,2.10
2018-03-31T08:12:48.696Z,1.70
2018-03-31T08:15:16.265Z,1.67
2018-03-31T08:17:43.853Z,1.70
2018-03-31T08:20:11.404Z,1.80
2018-03-31T08:22:38.968Z,2.10
2018-03-31T08:25:06.543Z,2.20
2018-03-31T08:27:34.126Z,2.10
2018-03-31T08:30:01.694Z,2.10
2018-03-31T08:32:29.271Z,2.53
2018-03-31T08:34:56.817Z,2.43
2018-03-31T08:37:24.485Z,2.37
2018-03-31T08:39:52.049Z,2.30
2018-03-31T08:42:19.630Z,2.13
2018-03-31T08:44:47.221Z,2.20
2018-03-31T08:47:14.802Z,2.00
2018-03-31T08:49:42.374Z,2.47
2018-03-31T08:52:10.689Z,2.73
2018-03-31T08:54:38.291Z,2.40
2018-03-31T08:57:05.873Z,2.77
2018-03-31T08:59:33.462Z,2.63
2018-03-31T09:02:01.012Z,4.10
2018-03-31T09:04:28.584Z,2.93
2018-03-31T09:06:56.915Z,2.87
2018-03-31T09:09:24.501Z,2.63
2018-03-31T09:11:52.096Z,2.17
2018-03-31T09:14:19.656Z,3.27
2018-03-31T09:16:47.240Z,3.83
2018-03-31T09:19:14.773Z,3.70
2018-03-31T09:21:42.346Z,2.60
2018-03-31T09:24:09.915Z,3.20
2018-03-31T09:26:37.467Z,2.60
2018-03-31T09:29:05.036Z,3.30
2018-03-31T09:31:32.598Z,3.43
2018-03-31T09:34:00.160Z,2.50
2018-03-31T09:36:27.739Z,2.33
2018-03-31T09:38:55.326Z,2.30
2018-03-31T09:41:22.910Z,2.60
2018-03-31T09:43:50.489Z,2.43
2018-03-31T09:46:18.470Z,2.37
2018-03-31T09:48:46.329Z,2.40
2018-03-31T09:51:13.918Z,2.20
2018-03-31T09:53:42.270Z,2.60
2018-03-31T09:56:10.155Z,2.33
2018-03-31T09:58:38.467Z,2.60
2018-03-31T10:01:07.832Z,2.13
2018-03-31T10:03:36.178Z,2.70
2018-03-31T10:06:03.751Z,2.70
2018-03-31T10:08:31.324Z,2.70
2018-03-31T10:10:58.895Z,2.20
2018-03-31T10:13:26.463Z,2.53
2018-03-31T10:15:54.084Z,3.33
2018-03-31T10:18:21.612Z,2.67
2018-03-31T10:20:49.173Z,2.83
2018-03-31T10:23:16.776Z,2.70
2018-03-31T10:25:44.374Z,2.87
2018-03-31T10:28:12.705Z,2.70
2018-03-31T10:30:40.298Z,2.40
2018-03-31T10:33:07.855Z,2.20
2018-03-31T10:35:35.446Z,2.00
2018-03-31T10:38:03.010Z,2.97
2018-03-31T10:40:30.591Z,1.90
2018-03-31T10:42:58.144Z,2.37
2018-03-31T10:45:25.712Z,2.07
2018-03-31T10:47:53.273Z,1.83
2018-03-31T10:50:20.869Z,1.90
2018-03-31T10:52:48.433Z,2.27
2018-03-31T10:55:16.015Z,1.90
2018-03-31T10:57:43.619Z,1.90
2018-03-31T11:00:11.973Z,1.90
2018-03-31T11:02:39.545Z,2.10
2018-03-31T11:05:07.118Z,1.67
2018-03-31T11:07:34.682Z,1.83
2018-03-31T11:10:03.141Z,2.30
2018-03-31T11:12:30.718Z,2.10
2018-03-31T11:14:58.293Z,2.00
2018-03-31T11:17:25.873Z,2.20
2018-03-31T11:19:53.451Z,2.00
2018-03-31T11:22:21.016Z,2.10
2018-03-31T11:24:48.685Z,1.97
2018-03-31T11:27:16.996Z,1.70
2018-03-31T11:29:44.577Z,1.60
2018-03-31T11:32:12.146Z,1.60
2018-03-31T11:34:39.741Z,1.70
2018-03-31T11:37:09.217Z,1.53
2018-03-31T11:39:37.105Z,1.43
2018-03-31T11:42:05.477Z,1.60
2018-03-31T11:44:37.025Z,1.60
2018-03-31T11:47:08.979Z,1.50
2018-03-31T11:49:38.143Z,1.50
2018-03-31T11:52:06.577Z,1.63
2018-03-31T11:54:37.575Z,1.50
2018-03-31T11:57:08.144Z,1.43
2018-03-31T11:59:37.870Z,1.50
2018-03-31T12:02:08.184Z,1.33
2018-03-31T12:04:36.761Z,1.27
2018-03-31T12:07:05.457Z,1.10
2018-03-31T12:09:34.108Z,1.17
2018-03-31T12:12:01.759Z,1.07
2018-03-31T12:14:31.332Z,1.23
2018-03-31T12:16:59.872Z,1.17
2018-03-31T12:19:28.776Z,1.20
2018-03-31T12:21:59.172Z,1.20
2018-03-31T12:24:32.078Z,1.10
2018-03-31T12:27:01.651Z,1.20
2018-03-31T12:29:32.491Z,1.07
2018-03-31T12:32:06.015Z,1.20
2018-03-31T12:34:34.396Z,1.50
2018-03-31T12:37:01.952Z,1.10
2018-03-31T12:39:29.543Z,1.37
2018-03-31T12:41:57.100Z,1.60
2018-03-31T12:44:24.674Z,1.50
2018-03-31T12:46:52.256Z,1.60
2018-03-31T12:49:19.837Z,1.30
2018-03-31T12:51:47.462Z,1.10
2018-03-31T12:54:14.996Z,1.33
2018-03-31T12:56:42.601Z,1.50
2018-03-31T12:59:10.169Z,1.60
2018-03-31T13:01:37.766Z,1.57
2018-03-31T13:04:05.336Z,1.33
2018-03-31T13:06:32.898Z,1.30
2018-03-31T13:09:00.481Z,1.50
2018-03-31T13:11:28.062Z,1.50
2018-03-31T13:13:55.638Z,1.40
2018-03-31T13:16:27.496Z,1.40
2018-03-31T13:18:55.044Z,1.43
2018-03-31T13:21:22.627Z,1.43
2018-03-31T13:23:53.684Z,1.40
2018-03-31T13:26:22.696Z,1.50
2018-03-31T13:28:50.291Z,1.70
2018-03-31T13:31:36.765Z,2.23
2018-03-31T13:34:04.333Z,1.67
2018-03-31T13:36:31.900Z,1.60
2018-03-31T13:38:59.513Z,1.70
2018-03-31T13:41:27.084Z,1.73
2018-03-31T13:43:54.640Z,1.77
2018-03-31T13:46:22.210Z,2.20
2018-03-31T13:48:49.789Z,2.67
2018-03-31T13:51:17.349Z,2.20
2018-03-31T13:53:46.594Z,1.97
2018-03-31T13:56:14.178Z,2.27
2018-03-31T13:58:41.770Z,1.80
2018-03-31T14:01:09.325Z,2.00
2018-03-31T14:03:36.902Z,1.90
2018-03-31T14:06:04.477Z,1.73
2018-03-31T14:08:32.049Z,1.90
2018-03-31T14:11:00.393Z,2.27
2018-03-31T14:13:27.992Z,2.60
2018-03-31T14:15:55.628Z,2.00
2018-03-31T14:18:23.192Z,1.57
2018-03-31T14:20:50.767Z,1.60
2018-03-31T14:23:18.377Z,1.80
2018-03-31T14:25:45.932Z,2.30
2018-03-31T14:28:13.602Z,9.03
2018-03-31T14:30:41.990Z,23.80
2018-03-31T14:33:09.591Z,2.67
2018-03-31T14:35:37.148Z,12.13
2018-03-31T14:38:04.711Z,3.37
2018-03-31T14:40:32.323Z,1.87
2018-03-31T14:42:59.900Z,1.80
2018-03-31T14:45:27.464Z,1.90
2018-03-31T14:47:55.027Z,1.90
2018-03-31T14:50:22.612Z,1.77
2018-03-31T14:52:50.234Z,1.57
2018-03-31T14:55:17.821Z,2.27
2018-03-31T14:57:45.402Z,2.00
2018-03-31T15:00:12.964Z,2.07
2018-03-31T15:02:40.544Z,3.23
2018-03-31T15:05:08.148Z,2.30
2018-03-31T15:07:36.488Z,1.80
2018-03-31T15:10:05.086Z,2.37
2018-03-31T15:12:32.667Z,3.30
2018-03-31T15:15:01.096Z,2.70
2018-03-31T15:17:28.668Z,1.97
2018-03-31T15:19:56.263Z,1.90
2018-03-31T15:22:23.845Z,19.43
2018-03-31T15:24:51.428Z,5.60
2018-03-31T15:27:19.006Z,3.77
2018-03-31T15:29:46.603Z,12.07
2018-03-31T15:32:14.177Z,2.90
2018-03-31T15:34:41.754Z,2.47
2018-03-31T15:37:09.338Z,4.43
2018-03-31T15:39:36.944Z,3.83
2018-03-31T15:42:04.566Z,2.30
2018-03-31T15:44:32.186Z,1.80
2018-03-31T15:46:59.759Z,1.80
2018-03-31T15:49:27.361Z,1.83
2018-03-31T15:51:54.942Z,1.40
2018-03-31T15:54:22.512Z,1.80
2018-03-31T15:56:50.091Z,1.30
2018-03-31T15:59:17.664Z,1.50
2018-03-31T16:01:45.279Z,1.40
2018-03-31T16:04:12.855Z,1.90
2018-03-31T16:06:41.207Z,1.23
2018-03-31T16:09:08.785Z,1.50
2018-03-31T16:11:36.368Z,1.80
2018-03-31T16:14:04.002Z,1.90
2018-03-31T16:16:32.020Z,1.60
2018-03-31T16:18:59.581Z,4.03
2018-03-31T16:21:27.180Z,1.47
2018-03-31T16:23:55.529Z,1.93
2018-03-31T16:26:23.118Z,1.70
2018-03-31T16:28:50.681Z,1.90
2018-03-31T16:31:18.260Z,1.90
2018-03-31T16:33:45.845Z,2.00
2018-03-31T16:36:13.446Z,1.90
2018-03-31T16:38:43.209Z,2.77
2018-03-31T16:41:11.672Z,2.30
2018-03-31T16:43:39.249Z,2.40
2018-03-31T16:46:06.861Z,1.90
2018-03-31T16:48:35.180Z,2.10
2018-03-31T16:51:03.521Z,1.90
2018-03-31T16:53:31.134Z,2.00
2018-03-31T16:55:59.491Z,2.00
2018-03-31T16:58:27.086Z,2.10
2018-03-31T17:00:54.646Z,2.30
2018-03-31T17:03:22.233Z,2.10
2018-03-31T17:05:49.802Z,2.10
2018-03-31T17:08:17.382Z,2.10
2018-03-31T17:10:45.716Z,2.50
2018-03-31T17:13:13.295Z,2.40
2018-03-31T17:15:40.877Z,2.00
2018-03-31T17:18:08.466Z,2.93
2018-03-31T17:20:36.058Z,2.27
2018-03-31T17:23:03.636Z,2.70
2018-03-31T17:25:32.016Z,2.10
2018-03-31T17:28:00.453Z,2.07
2018-03-31T17:30:28.033Z,2.43
2018-03-31T17:32:55.618Z,2.00
2018-03-31T17:35:23.248Z,3.40
2018-03-31T17:37:50.800Z,2.90
2018-03-31T17:40:19.163Z,2.70
2018-03-31T17:42:46.862Z,1.97
2018-03-31T17:45:15.235Z,2.30
2018-03-31T17:47:42.806Z,2.53
2018-03-31T17:50:10.436Z,2.40
2018-03-31T17:52:38.021Z,2.63
2018-03-31T17:55:06.343Z,2.30
2018-03-31T17:57:33.935Z,1.77
2018-03-31T18:00:02.295Z,2.03
2018-03-31T18:02:30.810Z,2.20
2018-03-31T18:04:58.386Z,1.90
2018-03-31T18:07:25.983Z,2.03
2018-03-31T18:09:53.545Z,1.90
2018-03-31T18:12:21.898Z,1.80
2018-03-31T18:14:49.514Z,2.03
2018-03-31T18:17:17.449Z,1.87
2018-03-31T18:19:45.031Z,3.03
2018-03-31T18:22:12.677Z,3.63
2018-03-31T18:24:41.708Z,4.07
2018-03-31T18:27:09.295Z,7.57
2018-03-31T18:29:36.900Z,9.70
2018-03-31T18:32:04.472Z,11.93
2018-03-31T18:34:32.092Z,10.77
2018-03-31T18:36:59.706Z,14.70
2018-03-31T18:39:27.249Z,11.00
2018-03-31T18:41:54.822Z,7.20
2018-03-31T18:44:22.792Z,7.23
2018-03-31T18:46:50.353Z,6.63
2018-03-31T18:49:17.934Z,7.50
2018-03-31T18:51:45.534Z,5.80
2018-03-31T18:54:13.864Z,5.60
2018-03-31T18:56:41.505Z,4.57
2018-03-31T18:59:09.044Z,4.20
2018-03-31T19:01:36.617Z,5.53
2018-03-31T19:04:04.190Z,4.90
2018-03-31T19:06:31.744Z,6.27
2018-03-31T19:08:59.327Z,6.20
2018-03-31T19:11:26.916Z,4.67
2018-03-31T19:13:54.492Z,5.00
2018-03-31T19:16:28.056Z,3.30
2018-03-31T19:18:55.644Z,6.33
2018-03-31T19:21:23.210Z,6.93
2018-03-31T19:23:50.807Z,9.20
2018-03-31T19:26:18.365Z,6.03
2018-03-31T19:28:45.953Z,6.67
2018-03-31T19:31:13.519Z,7.77
2018-03-31T19:33:41.097Z,6.00
2018-03-31T19:36:14.442Z,5.70
2018-03-31T19:38:42.028Z,5.53
2018-03-31T19:41:09.610Z,6.87
2018-03-31T19:43:37.178Z,5.87
2018-03-31T19:46:04.781Z,6.33
2018-03-31T19:48:32.357Z,7.00
2018-03-31T19:50:59.935Z,6.83
2018-03-31T19:53:27.525Z,8.03
2018-03-31T19:55:55.089Z,7.80
2018-03-31T19:58:22.697Z,8.83
2018-03-31T20:00:50.285Z,11.13
2018-03-31T20:03:17.886Z,8.13
2018-03-31T20:05:45.444Z,10.37
2018-03-31T20:08:13.028Z,7.73
2018-03-31T20:10:40.580Z,8.90
2018-03-31T20:13:08.155Z,10.50
2018-03-31T20:15:35.769Z,11.23
2018-03-31T20:18:03.367Z,10.43
2018-03-31T20:20:30.957Z,9.47
2018-03-31T20:22:58.523Z,7.50
2018-03-31T20:25:26.119Z,6.97
2018-03-31T20:27:53.698Z,8.10
2018-03-31T20:30:21.300Z,8.23
2018-03-31T20:32:49.624Z,10.30
2018-03-31T20:35:17.976Z,7.70
2018-03-31T20:37:45.599Z,8.97
2018-03-31T20:40:13.908Z,6.97
2018-03-31T20:42:41.494Z,6.40
2018-03-31T20:45:09.056Z,5.67
2018-03-31T20:47:36.635Z,5.20
2018-03-31T20:50:04.259Z,4.77
2018-03-31T20:52:31.802Z,5.53
2018-03-31T20:54:59.385Z,5.10
2018-03-31T20:57:27.706Z,6.60
2018-03-31T20:59:55.286Z,6.40
2018-03-31T21:02:22.845Z,6.07
2018-03-31T21:04:51.235Z,5.40
2018-03-31T21:07:18.832Z,5.73
2018-03-31T21:09:46.429Z,4.60
2018-03-31T21:12:13.992Z,5.10
2018-03-31T21:14:41.570Z,5.30
2018-03-31T21:17:09.590Z,6.10
2018-03-31T21:19:37.165Z,6.90
2018-03-31T21:22:05.138Z,5.93
2018-03-31T21:24:32.668Z,6.60
2018-03-31T21:27:00.235Z,7.33
2018-03-31T21:29:27.821Z,8.53
2018-03-31T21:31:55.415Z,7.60
2018-03-31T21:34:23.769Z,7.40
2018-03-31T21:36:51.321Z,7.10
2018-03-31T21:39:18.902Z,6.33
2018-03-31T21:41:46.465Z,13.00
2018-03-31T21:44:14.453Z,7.83
2018-03-31T21:46:44.131Z,20.37
2018-03-31T21:49:12.489Z,23.33
2018-03-31T21:51:40.175Z,19.40
2018-03-31T21:54:07.781Z,17.23
2018-03-31T21:56:35.631Z,11.10
2018-03-31T21:59:03.534Z,11.30
2018-03-31T22:01:31.451Z,8.90
2018-03-31T22:03:59.017Z,8.43
2018-03-31T22:06:27.305Z,7.10
2018-03-31T22:08:54.874Z,9.50
2018-03-31T22:11:22.466Z,7.10
2018-03-31T22:13:55.927Z,8.10
2018-03-31T22:16:24.211Z,9.80
2018-03-31T22:18:52.549Z,10.30
2018-03-31T22:21:20.178Z,11.53
2018-03-31T22:23:48.642Z,6.97
2018-03-31T22:26:16.235Z,6.17
2018-03-31T22:28:43.796Z,7.43
2018-03-31T22:31:12.146Z,6.07
2018-03-31T22:33:39.734Z,5.03
2018-03-31T22:36:07.988Z,4.53
2018-03-31T22:38:35.677Z,5.07
2018-03-31T22:41:03.266Z,9.07
2018-03-31T22:43:30.852Z,19.90
2018-03-31T22:45:58.521Z,14.93
2018-03-31T22:48:26.101Z,12.37
2018-03-31T22:50:53.705Z,9.30
2018-03-31T22:53:21.282Z,8.67
2018-03-31T22:55:48.861Z,7.77
2018-03-31T22:58:16.438Z,11.63
2018-03-31T23:00:44.722Z,42.40
2018-03-31T23:03:12.299Z,33.07
2018-03-31T23:05:39.889Z,21.47
2018-03-31T23:08:07.462Z,8.40
2018-03-31T23:10:35.091Z,7.47
2018-03-31T23:13:02.684Z,6.37
2018-03-31T23:15:30.278Z,6.07
2018-03-31T23:17:57.839Z,4.47
2018-03-31T23:20:25.441Z,4.27
2018-03-31T23:22:53.007Z,4.10
2018-03-31T23:25:20.584Z,3.80
2018-03-31T23:27:48.245Z,3.33
2018-03-31T23:30:15.877Z,3.10
2018-03-31T23:32:43.901Z,3.93
2018-03-31T23:35:11.481Z,4.03
2018-03-31T23:37:39.054Z,2.87
2018-03-31T23:40:06.701Z,3.00
2018-03-31T23:42:34.292Z,3.00
2018-03-31T23:45:02.861Z,3.00
2018-03-31T23:47:30.448Z,3.00
2018-03-31T23:49:58.043Z,3.00
2018-03-31T23:52:25.613Z,3.40
2018-03-31T23:54:53.172Z,3.03
2018-03-31T23:57:20.746Z,9.63
2018-03-31T23:59:48.344Z,2.87
